createdAt,value
2024-01-27T00:02:12.773Z,59.63
2024-01-27T00:04:41.373Z,59.83
2024-01-27T00:07:10.218Z,59.80
2024-01-27T00:09:38.897Z,59.80
2024-01-27T00:12:08.101Z,60.04
2024-01-27T00:14:40.746Z,60.03
2024-01-27T00:17:09.381Z,59.88
2024-01-27T00:19:41.218Z,60.09
2024-01-27T00:22:10.682Z,60.69
2024-01-27T00:24:39.204Z,60.85
2024-01-27T00:27:07.929Z,60.03
2024-01-27T00:29:38.064Z,60.34
2024-01-27T00:32:06.834Z,59.78
2024-01-27T00:34:35.550Z,60.15
2024-01-27T00:37:04.187Z,60.00
2024-01-27T00:39:34.969Z,60.02
2024-01-27T00:42:03.517Z,60.37
2024-01-27T00:44:32.165Z,59.91
2024-01-27T00:47:02.111Z,59.95
2024-01-27T00:49:30.761Z,60.32
2024-01-27T00:51:59.366Z,60.62
2024-01-27T00:54:28.644Z,60.74
2024-01-27T00:56:57.322Z,60.71
2024-01-27T00:59:26.073Z,60.83
2024-01-27T01:01:54.640Z,60.90
2024-01-27T01:04:24.732Z,61.00
2024-01-27T01:06:53.324Z,60.67
2024-01-27T01:09:22.063Z,60.82
2024-01-27T01:11:50.917Z,61.17
2024-01-27T01:14:19.764Z,60.88
2024-01-27T01:16:48.300Z,61.68
2024-01-27T01:19:17.002Z,63.47
2024-01-27T01:21:46.934Z,63.60
2024-01-27T01:24:15.595Z,63.63
2024-01-27T01:26:44.178Z,63.36
2024-01-27T01:29:12.658Z,62.00
2024-01-27T01:31:43.748Z,61.70
2024-01-27T01:34:12.409Z,61.66
2024-01-27T01:36:40.973Z,61.17
2024-01-27T01:39:14.883Z,61.23
2024-01-27T01:41:43.939Z,61.19
2024-01-27T01:44:12.626Z,60.62
2024-01-27T01:46:41.172Z,61.39
2024-01-27T01:49:10.340Z,61.81
2024-01-27T01:51:38.977Z,62.11
2024-01-27T01:54:09.254Z,62.30
2024-01-27T01:56:39.704Z,62.61
2024-01-27T01:59:08.443Z,63.21
2024-01-27T02:01:37.171Z,62.19
2024-01-27T02:04:07.147Z,61.97
2024-01-27T02:06:35.924Z,61.62
2024-01-27T02:09:06.403Z,62.44
2024-01-27T02:11:35.111Z,62.47
2024-01-27T02:14:05.746Z,63.15
2024-01-27T02:16:34.297Z,63.67
2024-01-27T02:19:02.992Z,63.69
2024-01-27T02:21:31.740Z,62.73
2024-01-27T02:24:00.952Z,63.46
2024-01-27T02:26:30.986Z,63.35
2024-01-27T02:28:59.508Z,64.92
2024-01-27T02:31:28.154Z,64.16
2024-01-27T02:33:57.217Z,64.90
2024-01-27T02:36:26.189Z,64.66
2024-01-27T02:38:54.890Z,64.73
2024-01-27T02:41:23.543Z,64.04
2024-01-27T02:43:53.542Z,64.41
2024-01-27T02:46:22.193Z,64.36
2024-01-27T02:48:50.882Z,64.84
2024-01-27T02:51:22.927Z,64.68
2024-01-27T02:53:51.718Z,65.96
2024-01-27T02:56:20.435Z,65.84
2024-01-27T02:58:49.098Z,68.30
2024-01-27T03:01:19.073Z,68.19
2024-01-27T03:03:47.791Z,66.72
2024-01-27T03:06:16.567Z,66.41
2024-01-27T03:08:45.087Z,66.74
2024-01-27T03:11:13.590Z,66.21
2024-01-27T03:13:46.545Z,65.20
2024-01-27T03:16:15.828Z,64.83
2024-01-27T03:18:45.967Z,65.47
2024-01-27T03:21:14.777Z,65.20
2024-01-27T03:23:43.352Z,65.31
2024-01-27T03:26:11.880Z,64.68
2024-01-27T03:28:40.467Z,65.46
2024-01-27T03:31:09.165Z,65.07
2024-01-27T03:33:37.916Z,64.76
2024-01-27T03:36:12.359Z,64.58
2024-01-27T03:38:41.069Z,65.38
2024-01-27T03:41:09.899Z,66.22
2024-01-27T03:43:38.514Z,65.54
2024-01-27T03:46:07.139Z,65.64
2024-01-27T03:48:36.677Z,65.59
2024-01-27T03:51:05.575Z,65.39
2024-01-27T03:53:35.621Z,65.17
2024-01-27T03:56:05.519Z,67.42
2024-01-27T03:58:34.381Z,67.33
2024-01-27T04:01:03.275Z,67.56
2024-01-27T04:03:31.923Z,68.33
2024-01-27T04:06:00.604Z,66.33
2024-01-27T04:08:29.244Z,66.57
2024-01-27T04:10:59.347Z,67.88
2024-01-27T04:13:28.147Z,67.90
2024-01-27T04:15:58.477Z,68.26
2024-01-27T04:18:27.135Z,67.13
2024-01-27T04:20:55.929Z,67.60
2024-01-27T04:23:24.449Z,68.13
2024-01-27T04:25:52.952Z,67.13
2024-01-27T04:28:23.054Z,67.37
2024-01-27T04:30:51.554Z,67.94
2024-01-27T04:33:20.474Z,67.58
2024-01-27T04:35:49.392Z,67.17
2024-01-27T04:38:17.999Z,67.54
2024-01-27T04:40:46.598Z,67.39
2024-01-27T04:43:19.878Z,66.03
2024-01-27T04:45:50.070Z,65.82
2024-01-27T04:48:19.028Z,66.03
2024-01-27T04:50:47.985Z,65.12
2024-01-27T04:53:16.946Z,65.11
2024-01-27T04:55:45.543Z,65.53
2024-01-27T04:58:14.241Z,64.80
2024-01-27T05:00:42.865Z,64.96
2024-01-27T05:03:15.695Z,65.83
2024-01-27T05:05:45.211Z,65.73
2024-01-27T05:08:13.788Z,65.76
2024-01-27T05:10:42.439Z,65.28
2024-01-27T05:13:11.000Z,65.34
2024-01-27T05:15:40.206Z,65.60
2024-01-27T05:18:09.213Z,65.77
2024-01-27T05:20:39.167Z,66.07
2024-01-27T05:23:07.684Z,65.79
2024-01-27T05:25:36.264Z,66.23
2024-01-27T05:28:05.086Z,66.91
2024-01-27T05:30:33.763Z,66.88
2024-01-27T05:33:02.464Z,66.91
2024-01-27T05:35:31.252Z,66.36
2024-01-27T05:38:01.338Z,67.00
2024-01-27T05:40:29.810Z,65.07
2024-01-27T05:42:58.408Z,65.42
2024-01-27T05:45:27.860Z,65.49
2024-01-27T05:47:56.488Z,64.41
2024-01-27T05:50:25.219Z,64.57
2024-01-27T05:52:54.149Z,64.30
2024-01-27T05:55:24.204Z,64.00
2024-01-27T05:57:52.785Z,65.18
2024-01-27T06:00:21.716Z,65.37
2024-01-27T06:02:50.472Z,65.13
2024-01-27T06:05:19.053Z,65.18
2024-01-27T06:07:49.188Z,64.82
2024-01-27T06:10:19.585Z,64.63
2024-01-27T06:12:49.706Z,65.06
2024-01-27T06:15:18.554Z,64.42
2024-01-27T06:17:47.097Z,64.05
2024-01-27T06:20:17.686Z,64.59
2024-01-27T06:22:46.345Z,64.88
2024-01-27T06:25:15.085Z,65.34
2024-01-27T06:27:43.733Z,65.14
2024-01-27T06:30:15.504Z,64.73
2024-01-27T06:32:44.333Z,64.90
2024-01-27T06:35:12.911Z,64.36
2024-01-27T06:37:41.633Z,64.83
2024-01-27T06:40:11.576Z,64.99
2024-01-27T06:42:40.249Z,65.52
2024-01-27T06:45:09.424Z,65.65
2024-01-27T06:47:41.716Z,66.39
2024-01-27T06:50:11.108Z,66.34
2024-01-27T06:52:39.693Z,65.72
2024-01-27T06:55:08.955Z,65.64
2024-01-27T06:57:37.531Z,66.25
2024-01-27T07:00:07.045Z,66.63
2024-01-27T07:02:35.720Z,66.67
2024-01-27T07:05:07.022Z,66.94
2024-01-27T07:07:35.622Z,66.21
2024-01-27T07:10:04.670Z,66.53
2024-01-27T07:12:33.207Z,65.64
2024-01-27T07:15:02.513Z,65.46
2024-01-27T07:17:32.220Z,64.95
2024-01-27T07:20:00.849Z,65.32
2024-01-27T07:22:31.130Z,64.73
2024-01-27T07:24:59.751Z,65.24
2024-01-27T07:27:28.306Z,64.42
2024-01-27T07:29:56.882Z,64.03
2024-01-27T07:32:27.434Z,63.68
2024-01-27T07:34:56.071Z,62.92
2024-01-27T07:37:24.689Z,63.07
2024-01-27T07:39:54.740Z,62.45
2024-01-27T07:42:23.257Z,62.26
2024-01-27T07:44:51.953Z,61.65
2024-01-27T07:47:20.749Z,61.35
2024-01-27T07:49:50.448Z,60.83
2024-01-27T07:52:19.684Z,61.79
2024-01-27T07:54:48.377Z,62.17
2024-01-27T07:57:18.392Z,63.64
2024-01-27T07:59:47.026Z,64.37
2024-01-27T08:02:15.761Z,62.67
2024-01-27T08:04:44.471Z,62.29
2024-01-27T08:07:16.105Z,65.53
2024-01-27T08:09:44.820Z,65.26
2024-01-27T08:12:13.439Z,66.01
2024-01-27T08:14:43.759Z,67.55
2024-01-27T08:17:12.387Z,67.82
2024-01-27T08:19:41.133Z,67.04
2024-01-27T08:22:10.646Z,66.18
2024-01-27T08:24:39.504Z,66.31
2024-01-27T08:27:08.308Z,65.62
2024-01-27T08:29:36.939Z,64.78
2024-01-27T08:32:07.997Z,65.39
2024-01-27T08:34:36.638Z,65.40
2024-01-27T08:37:05.357Z,65.05
2024-01-27T08:39:34.128Z,66.49
2024-01-27T08:42:02.839Z,66.81
2024-01-27T08:44:31.400Z,66.81
2024-01-27T08:47:01.953Z,66.11
2024-01-27T08:49:33.060Z,67.73
2024-01-27T08:52:01.753Z,64.19
2024-01-27T08:54:30.707Z,62.68
2024-01-27T08:56:59.560Z,61.20
2024-01-27T08:59:28.191Z,57.54
2024-01-27T09:01:56.982Z,55.14
2024-01-27T09:04:25.592Z,53.78
2024-01-27T09:06:55.645Z,49.24
2024-01-27T09:09:24.238Z,47.44
2024-01-27T09:11:52.823Z,46.50
2024-01-27T09:14:21.528Z,44.57
2024-01-27T09:16:50.184Z,45.96
2024-01-27T09:19:18.876Z,42.23
2024-01-27T09:21:48.040Z,42.88
2024-01-27T09:24:18.244Z,41.76
2024-01-27T09:26:46.870Z,41.73
2024-01-27T09:29:15.512Z,42.93
2024-01-27T09:31:44.162Z,40.75
2024-01-27T09:34:13.015Z,39.85
2024-01-27T09:36:41.915Z,39.56
2024-01-27T09:39:10.878Z,37.91
2024-01-27T09:41:41.726Z,39.13
2024-01-27T09:44:10.303Z,37.46
2024-01-27T09:46:38.971Z,40.11
2024-01-27T09:49:08.218Z,41.93
2024-01-27T09:51:37.089Z,40.88
2024-01-27T09:54:05.957Z,40.27
2024-01-27T09:56:35.384Z,41.03
2024-01-27T09:59:08.468Z,40.61
2024-01-27T10:01:39.683Z,40.87
2024-01-27T10:04:11.266Z,39.26
2024-01-27T10:06:40.861Z,38.46
2024-01-27T10:09:11.334Z,40.05
2024-01-27T10:11:44.950Z,39.73
2024-01-27T10:14:14.978Z,39.12
2024-01-27T10:16:44.616Z,38.04
2024-01-27T10:19:18.966Z,38.19
2024-01-27T10:21:48.296Z,35.39
2024-01-27T10:24:17.073Z,35.70
2024-01-27T10:26:45.668Z,36.32
2024-01-27T10:29:15.773Z,34.47
2024-01-27T10:31:44.353Z,34.52
2024-01-27T10:34:16.743Z,32.42
2024-01-27T10:36:46.856Z,32.79
2024-01-27T10:39:23.038Z,32.73
2024-01-27T10:41:52.962Z,30.44
2024-01-27T10:44:23.367Z,28.59
2024-01-27T10:46:52.967Z,29.47
2024-01-27T10:49:21.804Z,27.79
2024-01-27T10:51:56.580Z,25.91
2024-01-27T10:54:28.371Z,26.55
2024-01-27T10:57:00.334Z,25.63
2024-01-27T10:59:30.663Z,24.60
2024-01-27T11:01:59.766Z,23.48
2024-01-27T11:04:31.077Z,24.43
2024-01-27T11:07:01.103Z,25.15
2024-01-27T11:09:31.805Z,26.36
2024-01-27T11:12:02.107Z,26.15
2024-01-27T11:14:32.293Z,26.00
2024-01-27T11:17:00.946Z,25.96
2024-01-27T11:19:30.097Z,26.28
2024-01-27T11:22:07.530Z,28.83
2024-01-27T11:24:36.317Z,28.90
2024-01-27T11:27:06.032Z,28.81
2024-01-27T11:29:36.245Z,28.94
2024-01-27T11:32:06.105Z,28.94
2024-01-27T11:34:46.277Z,29.00
2024-01-27T11:37:18.555Z,29.51
2024-01-27T11:39:47.482Z,27.94
2024-01-27T11:42:17.468Z,28.24
2024-01-27T11:44:47.630Z,29.73
2024-01-27T11:47:19.887Z,29.29
2024-01-27T11:49:55.251Z,28.66
2024-01-27T11:52:24.432Z,27.69
2024-01-27T11:54:57.412Z,28.27
2024-01-27T11:57:26.702Z,28.90
2024-01-27T11:59:57.611Z,28.58
2024-01-27T12:02:26.223Z,29.59
2024-01-27T12:04:55.276Z,29.35
2024-01-27T12:07:24.130Z,28.83
2024-01-27T12:09:52.833Z,29.38
2024-01-27T12:12:22.373Z,28.71
2024-01-27T12:14:52.679Z,30.08
2024-01-27T12:17:25.220Z,28.01
2024-01-27T12:19:56.120Z,27.31
2024-01-27T12:22:27.404Z,27.53
2024-01-27T12:24:56.651Z,27.74
2024-01-27T12:27:25.775Z,28.76
2024-01-27T12:29:54.553Z,28.91
2024-01-27T12:32:24.582Z,30.03
2024-01-27T12:34:53.447Z,29.92
2024-01-27T12:37:24.907Z,29.75
2024-01-27T12:39:53.583Z,28.97
2024-01-27T12:42:22.215Z,29.61
2024-01-27T12:44:51.173Z,29.21
2024-01-27T12:47:21.316Z,29.81
2024-01-27T12:49:51.969Z,28.88
2024-01-27T12:52:20.631Z,29.03
2024-01-27T12:54:49.283Z,29.54
2024-01-27T12:57:19.102Z,28.19
2024-01-27T12:59:47.836Z,28.23
2024-01-27T13:02:16.712Z,27.73
2024-01-27T13:04:45.340Z,29.38
2024-01-27T13:07:16.091Z,29.23
2024-01-27T13:09:44.772Z,28.79
2024-01-27T13:12:13.417Z,30.15
2024-01-27T13:14:42.062Z,29.36
2024-01-27T13:17:10.844Z,29.27
2024-01-27T13:19:39.698Z,29.31
2024-01-27T13:22:08.282Z,30.86
2024-01-27T13:24:39.757Z,30.58
2024-01-27T13:27:09.561Z,29.22
2024-01-27T13:29:38.202Z,29.71
2024-01-27T13:32:07.471Z,29.92
2024-01-27T13:34:36.745Z,30.94
2024-01-27T13:37:06.218Z,29.93
2024-01-27T13:39:34.806Z,30.08
2024-01-27T13:42:06.287Z,30.51
2024-01-27T13:44:37.124Z,30.54
2024-01-27T13:47:06.304Z,31.92
2024-01-27T13:49:35.462Z,29.26
2024-01-27T13:52:06.358Z,28.67
2024-01-27T13:54:36.086Z,28.95
2024-01-27T13:57:06.554Z,29.80
2024-01-27T13:59:35.228Z,29.31
2024-01-27T14:02:04.097Z,29.57
2024-01-27T14:04:32.804Z,30.81
2024-01-27T14:07:04.367Z,29.27
2024-01-27T14:09:33.377Z,29.03
2024-01-27T14:12:02.484Z,29.73
2024-01-27T14:14:32.924Z,28.73
2024-01-27T14:17:01.561Z,30.09
2024-01-27T14:19:30.303Z,31.74
2024-01-27T14:21:58.918Z,31.69
2024-01-27T14:24:27.798Z,30.80
2024-01-27T14:26:56.546Z,31.08
2024-01-27T14:29:25.272Z,30.97
2024-01-27T14:31:55.424Z,31.83
2024-01-27T14:34:24.250Z,32.95
2024-01-27T14:36:54.001Z,33.48
2024-01-27T14:39:25.367Z,34.59
2024-01-27T14:41:54.134Z,34.89
2024-01-27T14:44:23.432Z,36.59
2024-01-27T14:46:52.233Z,35.70
2024-01-27T14:49:23.762Z,35.35
2024-01-27T14:51:52.567Z,36.03
2024-01-27T14:54:21.692Z,37.09
2024-01-27T14:56:50.344Z,36.29
2024-01-27T14:59:20.059Z,36.12
2024-01-27T15:01:50.302Z,36.97
2024-01-27T15:04:19.043Z,37.49
2024-01-27T15:06:49.183Z,38.23
2024-01-27T15:09:18.676Z,38.01
2024-01-27T15:11:47.433Z,37.34
2024-01-27T15:14:15.986Z,38.43
2024-01-27T15:16:44.756Z,37.91
2024-01-27T15:19:13.480Z,38.35
2024-01-27T15:21:42.161Z,36.55
2024-01-27T15:24:12.329Z,36.14
2024-01-27T15:26:41.004Z,36.14
2024-01-27T15:29:09.872Z,36.82
2024-01-27T15:31:38.882Z,35.60
2024-01-27T15:34:09.757Z,36.49
2024-01-27T15:36:38.671Z,36.10
2024-01-27T15:39:09.284Z,35.38
2024-01-27T15:41:41.144Z,38.16
2024-01-27T15:44:09.972Z,35.61
2024-01-27T15:46:38.692Z,35.91
2024-01-27T15:49:07.331Z,35.96
2024-01-27T15:51:36.070Z,35.26
2024-01-27T15:54:05.587Z,36.60
2024-01-27T15:56:34.268Z,36.04
2024-01-27T15:59:04.305Z,36.04
2024-01-27T16:01:32.828Z,38.24
2024-01-27T16:04:01.592Z,38.66
2024-01-27T16:06:30.486Z,37.83
2024-01-27T16:08:59.183Z,38.63
2024-01-27T16:11:27.723Z,38.42
2024-01-27T16:13:56.338Z,40.73
2024-01-27T16:16:27.479Z,41.88
2024-01-27T16:18:56.396Z,42.53
2024-01-27T16:21:26.318Z,43.25
2024-01-27T16:23:55.009Z,42.58
2024-01-27T16:26:25.738Z,41.80
2024-01-27T16:28:54.456Z,41.66
2024-01-27T16:31:23.070Z,41.40
2024-01-27T16:33:53.402Z,41.27
2024-01-27T16:36:22.348Z,42.33
2024-01-27T16:38:50.829Z,42.36
2024-01-27T16:41:18.365Z,42.14
2024-01-27T16:43:47.059Z,42.85
2024-01-27T16:46:15.602Z,42.55
2024-01-27T16:49:01.821Z,42.25
2024-01-27T16:51:31.839Z,42.50
2024-01-27T16:54:01.443Z,42.90
2024-01-27T16:56:31.595Z,42.70
2024-01-27T16:59:00.177Z,43.43
2024-01-27T17:01:28.848Z,43.48
2024-01-27T17:03:57.495Z,43.68
2024-01-27T17:06:26.228Z,43.79
2024-01-27T17:08:56.266Z,43.14
2024-01-27T17:11:24.890Z,42.99
2024-01-27T17:13:53.435Z,43.63
2024-01-27T17:16:21.992Z,43.24
2024-01-27T17:18:50.768Z,42.47
2024-01-27T17:21:20.937Z,42.92
2024-01-27T17:23:49.635Z,43.14
2024-01-27T17:26:19.727Z,42.43
2024-01-27T17:28:48.357Z,42.29
2024-01-27T17:31:16.981Z,42.36
2024-01-27T17:33:47.863Z,43.77
2024-01-27T17:36:17.337Z,44.75
2024-01-27T17:38:46.154Z,43.63
2024-01-27T17:41:14.698Z,45.18
2024-01-27T17:43:44.720Z,45.54
2024-01-27T17:46:14.524Z,45.72
2024-01-27T17:48:43.371Z,45.58
2024-01-27T17:51:12.277Z,45.80
2024-01-27T17:53:40.929Z,45.50
2024-01-27T17:56:09.608Z,45.00
2024-01-27T17:58:38.196Z,45.55
2024-01-27T18:01:08.448Z,45.72
2024-01-27T18:03:37.229Z,46.35
2024-01-27T18:06:06.182Z,45.96
2024-01-27T18:08:34.751Z,44.69
2024-01-27T18:11:03.406Z,46.01
2024-01-27T18:13:32.253Z,45.33
2024-01-27T18:16:01.579Z,45.64
2024-01-27T18:18:32.169Z,45.82
2024-01-27T18:21:00.924Z,45.28
2024-01-27T18:23:29.770Z,44.51
2024-01-27T18:25:58.409Z,49.89
2024-01-27T18:28:28.081Z,44.20
2024-01-27T18:30:56.852Z,43.75
2024-01-27T18:33:26.192Z,43.00
2024-01-27T18:35:59.226Z,44.07
2024-01-27T18:38:27.843Z,44.76
2024-01-27T18:40:56.460Z,42.97
2024-01-27T18:43:25.122Z,43.06
2024-01-27T18:45:55.383Z,42.22
2024-01-27T18:48:24.051Z,43.36
2024-01-27T18:50:52.665Z,43.28
2024-01-27T18:53:22.839Z,43.58
2024-01-27T18:55:51.425Z,44.06
2024-01-27T18:58:23.221Z,43.64
2024-01-27T19:00:52.915Z,43.31
2024-01-27T19:03:21.672Z,43.38
2024-01-27T19:05:50.330Z,44.87
2024-01-27T19:08:19.145Z,44.30
2024-01-27T19:10:49.188Z,42.71
2024-01-27T19:13:17.739Z,46.29
2024-01-27T19:15:46.205Z,48.51
2024-01-27T19:18:14.990Z,44.92
2024-01-27T19:20:44.163Z,45.42
2024-01-27T19:23:13.384Z,45.94
2024-01-27T19:25:42.596Z,45.89
2024-01-27T19:28:13.885Z,45.24
2024-01-27T19:30:43.110Z,45.69
2024-01-27T19:33:11.877Z,45.99
2024-01-27T19:35:40.517Z,45.76
2024-01-27T19:38:10.013Z,45.82
2024-01-27T19:40:38.600Z,46.03
2024-01-27T19:43:07.447Z,47.30
2024-01-27T19:45:37.529Z,47.68
2024-01-27T19:48:08.511Z,47.60
2024-01-27T19:50:37.355Z,48.06
2024-01-27T19:53:11.577Z,48.73
2024-01-27T19:55:41.142Z,48.58
2024-01-27T19:58:09.896Z,49.63
2024-01-27T20:00:41.733Z,49.31
2024-01-27T20:03:10.450Z,49.41
2024-01-27T20:05:39.275Z,48.16
2024-01-27T20:08:09.562Z,48.35
2024-01-27T20:10:38.052Z,47.11
2024-01-27T20:13:07.736Z,47.65
2024-01-27T20:15:36.448Z,47.40
2024-01-27T20:18:08.660Z,47.66
2024-01-27T20:20:39.553Z,47.97
2024-01-27T20:23:08.085Z,49.93
2024-01-27T20:25:36.833Z,49.55
2024-01-27T20:28:05.849Z,51.90
2024-01-27T20:30:34.982Z,53.11
2024-01-27T20:33:03.886Z,50.01
2024-01-27T20:35:34.212Z,50.26
2024-01-27T20:38:02.746Z,47.32
2024-01-27T20:40:31.333Z,46.54
2024-01-27T20:43:01.836Z,45.92
2024-01-27T20:45:30.468Z,46.27
2024-01-27T20:47:59.226Z,45.97
2024-01-27T20:50:28.095Z,45.41
2024-01-27T20:52:58.481Z,45.68
2024-01-27T20:55:27.842Z,45.33
2024-01-27T20:57:56.610Z,44.96
2024-01-27T21:00:26.470Z,44.95
2024-01-27T21:02:55.275Z,45.32
2024-01-27T21:05:23.853Z,47.56
2024-01-27T21:07:52.528Z,46.83
2024-01-27T21:10:22.689Z,48.28
2024-01-27T21:12:52.224Z,45.80
2024-01-27T21:15:21.019Z,48.10
2024-01-27T21:17:50.395Z,47.92
2024-01-27T21:20:19.126Z,48.97
2024-01-27T21:22:47.660Z,48.93
2024-01-27T21:25:16.367Z,49.29
2024-01-27T21:27:46.717Z,48.25
2024-01-27T21:30:15.917Z,47.82
2024-01-27T21:32:44.558Z,47.88
2024-01-27T21:35:13.584Z,46.82
2024-01-27T21:37:42.194Z,47.82
2024-01-27T21:40:12.327Z,47.44
2024-01-27T21:42:40.952Z,47.24
2024-01-27T21:45:12.082Z,47.52
2024-01-27T21:47:40.729Z,50.60
2024-01-27T21:50:10.144Z,50.16
2024-01-27T21:52:38.869Z,48.72
2024-01-27T21:55:08.359Z,50.49
2024-01-27T21:57:36.861Z,49.92
2024-01-27T22:00:06.224Z,50.55
2024-01-27T22:02:41.458Z,50.33
2024-01-27T22:05:11.941Z,50.68
2024-01-27T22:07:40.929Z,52.21
2024-01-27T22:10:11.118Z,53.02
2024-01-27T22:12:39.772Z,52.96
2024-01-27T22:15:09.875Z,52.81
2024-01-27T22:17:42.300Z,52.43
2024-01-27T22:20:13.226Z,50.88
2024-01-27T22:22:41.990Z,50.58
2024-01-27T22:25:12.529Z,52.17
2024-01-27T22:27:42.491Z,50.99
2024-01-27T22:30:15.839Z,50.67
2024-01-27T22:32:46.032Z,51.19
2024-01-27T22:35:14.644Z,52.43
2024-01-27T22:37:43.384Z,52.32
2024-01-27T22:40:13.047Z,51.99
2024-01-27T22:42:42.023Z,52.57
2024-01-27T22:45:11.402Z,52.38
2024-01-27T22:47:41.124Z,53.29
2024-01-27T22:50:11.790Z,52.55
2024-01-27T22:52:41.218Z,52.17
2024-01-27T22:55:10.524Z,52.01
2024-01-27T22:57:39.221Z,52.48
2024-01-27T23:00:20.826Z,52.38
2024-01-27T23:02:50.362Z,51.78
2024-01-27T23:05:20.306Z,50.92
2024-01-27T23:07:48.877Z,50.16
2024-01-27T23:10:17.852Z,50.34
2024-01-27T23:12:46.698Z,49.57
2024-01-27T23:15:15.269Z,51.00
2024-01-27T23:17:43.844Z,50.93
2024-01-27T23:20:13.626Z,51.06
2024-01-27T23:22:43.842Z,51.08
2024-01-27T23:25:12.510Z,50.76
2024-01-27T23:27:41.551Z,50.92
2024-01-27T23:30:11.412Z,51.25
2024-01-27T23:32:40.191Z,51.50
2024-01-27T23:35:10.023Z,51.42
2024-01-27T23:37:39.024Z,52.00
2024-01-27T23:40:10.339Z,50.99
2024-01-27T23:42:41.916Z,52.02
2024-01-27T23:45:11.330Z,51.85
2024-01-27T23:47:40.040Z,52.43
2024-01-27T23:50:09.787Z,51.54
2024-01-27T23:52:39.650Z,51.51
2024-01-27T23:55:10.328Z,51.10
2024-01-27T23:57:41.481Z,51.48
